createdAt,value
2019-04-21T00:01:12.541Z,60.90
2019-04-21T00:07:45.351Z,61.20
2019-04-21T00:10:12.073Z,61.50
2019-04-21T00:12:40.535Z,61.60
2019-04-21T00:15:06.350Z,62.00
2019-04-21T00:17:29.895Z,62.10
2019-04-21T00:20:15.556Z,62.30
2019-04-21T00:22:44.314Z,62.70
2019-04-21T00:25:18.132Z,63.00
2019-04-21T00:27:54.971Z,63.10
2019-04-21T00:30:32.961Z,63.20
2019-04-21T00:32:50.299Z,63.40
2019-04-21T00:35:13.358Z,63.70
2019-04-21T00:38:00.876Z,63.80
2019-04-21T00:40:34.572Z,64.00
2019-04-21T00:42:59.941Z,63.90
2019-04-21T00:45:28.892Z,63.90
2019-04-21T00:48:05.938Z,64.00
2019-04-21T00:50:51.774Z,64.50
2019-04-21T00:53:22.566Z,65.10
2019-04-21T00:55:56.897Z,64.50
2019-04-21T00:58:30.003Z,64.50
2019-04-21T01:01:00.503Z,65.50
2019-04-21T01:03:45.919Z,64.90
2019-04-21T01:06:01.812Z,64.80
2019-04-21T01:08:25.389Z,64.80
2019-04-21T01:10:53.162Z,65.20
2019-04-21T01:13:38.415Z,65.10
2019-04-21T01:16:12.452Z,65.10
2019-04-21T01:18:32.840Z,65.20
2019-04-21T01:20:45.442Z,65.10
2019-04-21T01:23:15.056Z,66.40
2019-04-21T01:25:59.413Z,65.70
2019-04-21T01:28:36.553Z,66.00
2019-04-21T01:31:03.500Z,65.60
2019-04-21T01:33:41.245Z,65.70
2019-04-21T01:36:08.247Z,65.90
2019-04-21T01:38:39.873Z,65.60
2019-04-21T01:41:16.058Z,66.00
2019-04-21T01:43:42.315Z,65.90
2019-04-21T01:46:13.899Z,66.60
2019-04-21T01:48:40.314Z,66.20
2019-04-21T01:51:15.751Z,67.00
2019-04-21T01:54:12.497Z,67.00
2019-04-21T01:56:49.797Z,66.60
2019-04-21T01:59:03.747Z,67.30
2019-04-21T02:01:46.163Z,67.60
2019-04-21T02:04:26.961Z,67.70
2019-04-21T02:06:50.492Z,67.80
2019-04-21T02:09:19.185Z,68.00
2019-04-21T02:11:55.221Z,67.90
2019-04-21T02:14:31.271Z,68.10
2019-04-21T02:16:59.627Z,68.10
2019-04-21T02:19:26.644Z,68.10
2019-04-21T02:21:52.002Z,68.20
2019-04-21T02:24:35.186Z,68.10
2019-04-21T02:27:08.644Z,68.30
2019-04-21T02:29:37.738Z,68.30
2019-04-21T02:32:26.694Z,68.30
2019-04-21T02:34:57.561Z,68.40
2019-04-21T02:39:49.053Z,70.00
2019-04-21T02:47:31.277Z,70.60
2019-04-21T02:50:00.243Z,70.60
2019-04-21T02:52:31.821Z,70.50
2019-04-21T02:57:26.897Z,70.60
2019-04-21T03:05:43.373Z,70.80
2019-04-21T03:10:37.986Z,71.30
2019-04-21T03:13:05.006Z,71.30
2019-04-21T03:15:43.164Z,71.60
2019-04-21T03:18:26.401Z,71.90
2019-04-21T03:20:43.960Z,72.00
2019-04-21T03:23:21.038Z,72.10
2019-04-21T03:28:14.070Z,72.60
2019-04-21T03:31:06.479Z,72.70
2019-04-21T03:40:47.356Z,73.10
2019-04-21T03:43:22.133Z,73.30
2019-04-21T03:50:47.263Z,74.10
2019-04-21T03:53:24.893Z,74.30
2019-04-21T03:58:41.927Z,74.60
2019-04-21T04:01:21.963Z,74.60
2019-04-21T04:07:25.091Z,75.30
2019-04-21T04:10:04.002Z,75.20
2019-04-21T04:12:18.832Z,75.20
2019-04-21T04:14:57.755Z,75.20
2019-04-21T04:19:58.352Z,75.70
2019-04-21T04:22:31.453Z,76.10
2019-04-21T04:27:49.344Z,76.70
2019-04-21T04:30:08.337Z,76.90
2019-04-21T04:32:41.996Z,77.20
2019-04-21T04:40:13.902Z,77.60
2019-04-21T04:43:04.098Z,78.50
2019-04-21T04:48:01.924Z,78.30
2019-04-21T04:50:34.019Z,78.60
2019-04-21T04:53:32.868Z,78.90
2019-04-21T04:56:01.390Z,79.00
2019-04-21T04:58:56.373Z,79.40
2019-04-21T05:01:06.334Z,79.30
2019-04-21T05:03:43.803Z,79.80
2019-04-21T05:09:02.814Z,80.20
2019-04-21T05:14:02.758Z,81.70
2019-04-21T05:23:51.097Z,81.10
2019-04-21T05:26:14.955Z,79.30
2019-04-21T05:28:47.448Z,78.80
2019-04-21T05:31:53.584Z,77.90
2019-04-21T05:34:26.021Z,77.20
2019-04-21T05:37:01.123Z,76.50
2019-04-21T05:39:57.225Z,76.80
2019-04-21T05:42:25.946Z,76.60
2019-04-21T05:45:14.709Z,76.10
2019-04-21T05:48:02.806Z,75.20
2019-04-21T05:50:21.938Z,74.90
2019-04-21T05:52:55.493Z,73.90
2019-04-21T05:55:40.683Z,74.00
2019-04-21T05:58:02.546Z,72.10
2019-04-21T06:01:06.660Z,71.40
2019-04-21T06:03:15.154Z,71.10
2019-04-21T06:05:54.424Z,71.30
2019-04-21T06:08:13.347Z,70.30
2019-04-21T06:10:47.402Z,69.60
2019-04-21T06:13:21.734Z,69.40
2019-04-21T06:15:52.896Z,68.50
2019-04-21T06:18:21.404Z,67.20
2019-04-21T06:20:47.977Z,67.30
2019-04-21T06:23:20.910Z,66.10
2019-04-21T06:26:03.758Z,65.60
2019-04-21T06:28:19.208Z,65.30
2019-04-21T06:31:02.361Z,64.80
2019-04-21T06:33:30.643Z,64.80
2019-04-21T06:39:05.124Z,64.20
2019-04-21T06:41:35.358Z,63.40
2019-04-21T06:44:13.228Z,63.20
2019-04-21T06:51:10.547Z,61.50
2019-04-21T06:53:48.715Z,60.70
2019-04-21T06:56:20.493Z,60.00
2019-04-21T06:58:39.949Z,59.40
2019-04-21T07:01:11.473Z,59.40
2019-04-21T07:03:48.709Z,59.10
2019-04-21T07:06:12.885Z,59.10
2019-04-21T07:08:52.953Z,59.00
2019-04-21T07:11:12.468Z,58.80
2019-04-21T07:13:44.034Z,58.80
2019-04-21T07:16:18.706Z,58.80
2019-04-21T07:18:53.453Z,58.90
2019-04-21T07:21:20.344Z,58.90
2019-04-21T07:23:54.285Z,59.20
2019-04-21T07:26:19.386Z,59.50
2019-04-21T07:28:59.802Z,59.20
2019-04-21T07:31:25.262Z,59.00
2019-04-21T07:34:00.172Z,59.60
2019-04-21T07:36:30.580Z,58.90
2019-04-21T07:38:55.594Z,58.00
2019-04-21T07:41:20.038Z,57.10
2019-04-21T07:43:55.267Z,57.10
2019-04-21T07:46:26.379Z,57.20
2019-04-21T07:49:11.387Z,57.30
2019-04-21T07:52:03.361Z,56.90
2019-04-21T07:54:42.463Z,56.50
2019-04-21T07:56:52.371Z,55.60
2019-04-21T07:59:50.287Z,55.20
2019-04-21T08:02:01.353Z,54.80
2019-04-21T08:07:07.260Z,54.20
2019-04-21T08:09:42.312Z,53.70
2019-04-21T08:12:04.335Z,53.60
2019-04-21T08:14:48.280Z,52.70
2019-04-21T08:17:09.597Z,52.20
2019-04-21T08:19:42.768Z,51.30
2019-04-21T08:22:17.054Z,50.30
2019-04-21T08:24:50.081Z,50.60
2019-04-21T08:27:18.997Z,51.00
2019-04-21T08:29:51.651Z,49.90
2019-04-21T08:32:26.554Z,51.10
2019-04-21T08:35:08.460Z,50.90
2019-04-21T08:37:18.722Z,50.40
2019-04-21T08:40:05.806Z,50.10
2019-04-21T08:42:26.749Z,49.50
2019-04-21T08:44:52.440Z,48.70
2019-04-21T08:47:25.572Z,50.00
2019-04-21T08:49:55.404Z,49.80
2019-04-21T08:52:36.029Z,47.80
2019-04-21T08:55:15.536Z,48.50
2019-04-21T08:58:05.196Z,48.90
2019-04-21T09:00:50.583Z,50.00
2019-04-21T09:03:35.481Z,49.60
2019-04-21T09:06:07.596Z,49.60
2019-04-21T09:08:40.811Z,48.50
2019-04-21T09:11:08.160Z,49.00
2019-04-21T09:13:37.053Z,48.90
2019-04-21T09:16:08.530Z,49.00
2019-04-21T09:18:38.088Z,48.90
2019-04-21T09:21:13.602Z,48.50
2019-04-21T09:23:46.793Z,49.10
2019-04-21T09:26:20.069Z,49.20
2019-04-21T09:28:40.778Z,47.60
2019-04-21T09:31:04.801Z,46.60
2019-04-21T09:33:39.088Z,45.90
2019-04-21T09:36:09.695Z,45.20
2019-04-21T09:38:41.568Z,44.90
2019-04-21T09:41:15.733Z,44.20
2019-04-21T09:43:45.366Z,45.70
2019-04-21T09:46:09.829Z,47.10
2019-04-21T09:48:50.109Z,46.50
2019-04-21T09:51:11.052Z,46.50
2019-04-21T09:53:43.781Z,46.50
2019-04-21T09:56:16.676Z,46.60
2019-04-21T09:58:49.535Z,46.80
2019-04-21T10:01:28.246Z,46.70
2019-04-21T10:03:56.077Z,47.10
2019-04-21T10:06:23.674Z,46.90
2019-04-21T10:09:48.011Z,46.60
2019-04-21T10:12:17.966Z,47.30
2019-04-21T10:15:04.190Z,47.10
2019-04-21T10:23:02.989Z,47.80
2019-04-21T10:25:34.551Z,48.70
2019-04-21T10:28:05.164Z,49.00
2019-04-21T10:30:34.729Z,48.70
2019-04-21T10:33:06.180Z,48.80
2019-04-21T10:35:35.647Z,49.00
2019-04-21T10:38:19.275Z,48.30
2019-04-21T10:40:37.348Z,48.80
2019-04-21T10:43:10.080Z,49.10
2019-04-21T10:45:39.179Z,50.00
2019-04-21T10:48:10.825Z,49.00
2019-04-21T10:50:41.146Z,50.50
2019-04-21T10:53:14.631Z,50.00
2019-04-21T10:55:56.708Z,50.10
2019-04-21T10:58:36.176Z,49.90
2019-04-21T11:01:13.859Z,49.30
2019-04-21T11:03:58.577Z,49.60
2019-04-21T11:06:32.614Z,50.30
2019-04-21T11:12:37.470Z,50.10
2019-04-21T11:18:39.783Z,49.40
2019-04-21T11:21:11.345Z,50.20
2019-04-21T11:23:41.210Z,49.90
2019-04-21T11:26:12.034Z,49.40
2019-04-21T11:28:43.011Z,49.80
2019-04-21T11:31:13.252Z,49.20
2019-04-21T11:33:45.324Z,50.40
2019-04-21T11:36:15.831Z,52.10
2019-04-21T11:39:12.608Z,50.00
2019-04-21T11:41:32.054Z,50.80
2019-04-21T11:44:05.007Z,51.40
2019-04-21T11:46:36.319Z,50.40
2019-04-21T11:49:28.611Z,50.60
2019-04-21T11:51:57.155Z,50.00
2019-04-21T11:54:26.843Z,50.60
2019-04-21T11:56:57.108Z,50.70
2019-04-21T11:59:28.427Z,50.40
2019-04-21T12:02:12.431Z,50.10
2019-04-21T12:04:43.315Z,50.20
2019-04-21T12:07:37.717Z,49.70
2019-04-21T12:10:11.295Z,49.80
2019-04-21T12:17:12.128Z,49.80
2019-04-21T12:19:46.168Z,50.30
2019-04-21T12:27:52.281Z,49.70
2019-04-21T12:40:30.792Z,50.80
2019-04-21T12:43:02.925Z,50.60
2019-04-21T12:49:25.539Z,50.40
2019-04-21T12:51:57.586Z,50.40
2019-04-21T12:55:26.170Z,51.10
2019-04-21T12:57:55.323Z,51.10
2019-04-21T13:01:27.588Z,50.00
2019-04-21T13:03:57.916Z,50.80
2019-04-21T13:52:16.424Z,50.70
2019-04-21T13:54:47.341Z,50.50
2019-04-21T13:57:18.771Z,51.10
2019-04-21T13:59:49.595Z,50.90
2019-04-21T14:02:20.766Z,52.10
2019-04-21T14:04:51.674Z,51.80
2019-04-21T14:07:21.722Z,51.60
2019-04-21T14:10:00.792Z,51.70
2019-04-21T14:15:04.052Z,51.60
2019-04-21T14:17:34.942Z,50.40
2019-04-21T14:20:05.245Z,50.60
2019-04-21T14:22:35.892Z,50.50
2019-04-21T14:25:07.852Z,51.10
2019-04-21T14:27:38.481Z,51.30
2019-04-21T14:30:10.374Z,50.20
2019-04-21T14:32:40.247Z,50.00
2019-04-21T14:35:14.679Z,50.70
2019-04-21T14:37:44.575Z,50.20
2019-04-21T14:40:23.552Z,51.80
2019-04-21T14:42:47.992Z,49.70
2019-04-21T14:45:40.797Z,50.30
2019-04-21T14:48:41.259Z,50.20
2019-04-21T14:51:38.911Z,50.80
2019-04-21T14:54:33.380Z,51.40
2019-04-21T14:57:03.300Z,51.70
2019-04-21T14:59:33.266Z,51.50
2019-04-21T15:02:03.919Z,52.50
2019-04-21T15:04:33.899Z,51.80
2019-04-21T15:07:05.755Z,51.90
2019-04-21T15:09:37.195Z,52.00
2019-04-21T15:12:07.833Z,50.90
2019-04-21T15:14:38.029Z,51.30
2019-04-21T15:17:07.546Z,51.60
2019-04-21T15:19:38.274Z,52.50
2019-04-21T15:22:08.328Z,52.10
2019-04-21T15:24:38.374Z,52.00
2019-04-21T15:27:09.167Z,52.30
2019-04-21T15:29:38.570Z,51.80
2019-04-21T15:32:08.543Z,51.80
2019-04-21T15:34:38.268Z,51.90
2019-04-21T15:37:08.155Z,51.10
2019-04-21T15:39:38.434Z,51.20
2019-04-21T15:42:08.467Z,51.90
2019-04-21T15:44:38.754Z,52.20
2019-04-21T15:47:10.221Z,52.70
2019-04-21T15:50:02.784Z,52.80
2019-04-21T15:52:27.916Z,53.80
2019-04-21T15:55:06.314Z,54.00
2019-04-21T15:57:58.614Z,55.30
2019-04-21T16:00:56.495Z,54.40
2019-04-21T16:03:26.793Z,53.60
2019-04-21T16:05:56.475Z,53.40
2019-04-21T16:08:27.084Z,53.70
2019-04-21T16:11:00.115Z,53.40
2019-04-21T16:13:27.713Z,52.90
2019-04-21T16:15:58.690Z,52.40
2019-04-21T16:22:01.131Z,52.60
2019-04-21T16:24:31.132Z,51.90
2019-04-21T16:27:04.604Z,51.40
2019-04-21T16:29:33.130Z,50.30
2019-04-21T16:32:02.702Z,50.40
2019-04-21T16:34:42.715Z,50.90
2019-04-21T16:37:03.575Z,51.10
2019-04-21T16:39:33.559Z,50.70
2019-04-21T16:45:10.498Z,50.90
2019-04-21T16:47:40.571Z,50.50
2019-04-21T16:50:11.851Z,50.50
2019-04-21T16:53:05.978Z,51.30
2019-04-21T16:55:42.745Z,50.50
2019-04-21T16:58:40.804Z,50.00
2019-04-21T17:07:36.752Z,50.00
2019-04-21T17:10:08.554Z,49.90
2019-04-21T17:12:39.403Z,49.80
2019-04-21T17:15:25.185Z,50.20
2019-04-21T17:21:15.200Z,50.70
2019-04-21T17:23:46.293Z,50.80
2019-04-21T17:26:17.072Z,51.20
2019-04-21T17:28:46.739Z,51.10
2019-04-21T17:31:16.379Z,51.10
2019-04-21T17:33:47.070Z,51.30
2019-04-21T17:36:17.306Z,51.50
2019-04-21T17:38:48.145Z,51.50
2019-04-21T17:41:27.914Z,51.60
2019-04-21T17:43:49.947Z,51.90
2019-04-21T17:46:26.209Z,52.10
2019-04-21T17:48:52.623Z,52.00
2019-04-21T17:51:32.330Z,51.70
2019-04-21T17:54:15.942Z,51.90
2019-04-21T17:57:00.192Z,51.70
2019-04-21T17:59:41.566Z,51.90
2019-04-21T18:01:59.410Z,52.40
2019-04-21T18:04:33.483Z,52.20
2019-04-21T18:07:26.362Z,52.40
2019-04-21T18:10:00.944Z,52.40
2019-04-21T18:13:07.804Z,53.20
2019-04-21T18:15:47.101Z,52.80
2019-04-21T18:18:08.429Z,53.20
2019-04-21T18:20:41.838Z,53.40
2019-04-21T18:23:46.870Z,53.70
2019-04-21T18:26:23.564Z,54.00
2019-04-21T18:28:40.853Z,54.20
2019-04-21T18:31:14.762Z,54.60
2019-04-21T18:34:03.479Z,54.40
2019-04-21T18:37:12.177Z,54.20
2019-04-21T18:40:09.514Z,54.10
2019-04-21T18:42:52.815Z,54.20
2019-04-21T18:48:31.563Z,54.80
2019-04-21T18:55:01.486Z,55.40
2019-04-21T18:57:27.350Z,55.30
2019-04-21T18:59:53.260Z,55.60
2019-04-21T19:31:56.132Z,56.20
2019-04-21T19:34:16.421Z,56.60
2019-04-21T19:36:48.783Z,56.70
2019-04-21T19:39:16.151Z,56.90
2019-04-21T19:41:56.072Z,57.00
2019-04-21T19:44:33.623Z,57.10
2019-04-21T19:47:03.929Z,57.50
2019-04-21T19:49:39.996Z,57.80
2019-04-21T19:51:59.627Z,58.00
2019-04-21T19:54:31.602Z,58.10
2019-04-21T19:56:53.496Z,58.50
2019-04-21T19:59:32.464Z,58.60
2019-04-21T20:01:56.214Z,59.40
2019-04-21T20:04:34.349Z,59.80
2019-04-21T20:07:02.778Z,60.00
2019-04-21T20:09:47.756Z,60.60
2019-04-21T20:12:23.857Z,60.80
2019-04-21T20:15:08.511Z,61.00
2019-04-21T20:17:17.570Z,61.50
2019-04-21T20:19:38.660Z,61.70
2019-04-21T20:22:09.231Z,61.70
2019-04-21T20:24:40.015Z,62.00
2019-04-21T20:27:17.763Z,62.30
2019-04-21T20:30:07.254Z,62.20
2019-04-21T20:32:37.868Z,62.30
2019-04-21T20:35:07.159Z,62.50
2019-04-21T20:41:48.283Z,62.70
2019-04-21T20:44:24.761Z,62.80
2019-04-21T20:46:54.505Z,63.10
2019-04-21T20:49:27.095Z,63.20
2019-04-21T20:52:10.755Z,63.50
2019-04-21T20:54:43.713Z,63.70
2019-04-21T20:57:11.163Z,63.70
2019-04-21T20:59:40.952Z,63.80
2019-04-21T21:02:11.997Z,64.10
2019-04-21T21:04:40.317Z,64.40
2019-04-21T21:10:43.954Z,64.60
2019-04-21T21:18:53.335Z,65.70
2019-04-21T21:21:01.223Z,66.10
2019-04-21T21:23:33.471Z,66.50
2019-04-21T21:26:14.486Z,66.60
2019-04-21T21:28:32.801Z,66.90
2019-04-21T21:31:08.446Z,67.00
2019-04-21T21:33:39.478Z,67.80
2019-04-21T21:36:09.140Z,66.90
2019-04-21T21:38:43.431Z,66.90
2019-04-21T21:41:03.237Z,67.00
2019-04-21T21:43:26.707Z,66.90
2019-04-21T21:45:59.513Z,67.10
2019-04-21T21:48:42.988Z,67.40
2019-04-21T21:51:05.941Z,67.80
2019-04-21T21:53:33.770Z,68.00
2019-04-21T21:56:02.631Z,67.80
2019-04-21T21:58:37.152Z,67.80
2019-04-21T22:01:07.881Z,67.70
2019-04-21T22:03:40.888Z,67.80
2019-04-21T22:06:10.837Z,67.80
2019-04-21T22:08:40.513Z,67.90
2019-04-21T22:11:10.921Z,68.20
2019-04-21T22:13:47.566Z,68.90
2019-04-21T22:16:15.591Z,69.00
2019-04-21T22:19:04.579Z,69.40
2019-04-21T22:21:39.630Z,69.80
2019-04-21T22:23:56.852Z,70.20
2019-04-21T22:26:22.978Z,70.60
2019-04-21T22:28:53.821Z,71.40
2019-04-21T22:31:28.197Z,70.50
2019-04-21T22:34:00.346Z,70.20
2019-04-21T22:36:36.575Z,70.30
2019-04-21T22:39:13.325Z,70.10
2019-04-21T22:41:34.636Z,70.30
2019-04-21T22:44:00.965Z,70.40
2019-04-21T22:46:30.674Z,70.70
2019-04-21T22:49:05.426Z,71.10
2019-04-21T22:51:37.611Z,71.60
2019-04-21T22:54:06.144Z,71.40
2019-04-21T22:56:41.234Z,71.50
2019-04-21T22:59:09.645Z,71.80
2019-04-21T23:01:42.458Z,71.80
2019-04-21T23:04:12.454Z,71.80
2019-04-21T23:06:51.293Z,71.80
2019-04-21T23:09:16.984Z,71.80
2019-04-21T23:11:51.039Z,71.80
2019-04-21T23:14:43.853Z,72.20
2019-04-21T23:17:29.799Z,72.40
2019-04-21T23:20:00.014Z,72.80
2019-04-21T23:22:27.924Z,73.10
2019-04-21T23:24:59.532Z,73.80
2019-04-21T23:27:23.303Z,74.00
2019-04-21T23:30:06.402Z,74.20
2019-04-21T23:32:27.924Z,74.40
2019-04-21T23:34:45.924Z,74.60
2019-04-21T23:37:20.245Z,74.50
2019-04-21T23:39:47.734Z,74.30
2019-04-21T23:42:23.722Z,74.20
2019-04-21T23:44:52.929Z,74.40
2019-04-21T23:47:30.431Z,74.60
2019-04-21T23:49:59.631Z,74.40
2019-04-21T23:52:25.521Z,74.20
2019-04-21T23:54:55.612Z,74.20
2019-04-21T23:57:32.600Z,74.30
2019-04-21T23:59:58.855Z,74.30
